Terminal Aerodrome Forecast
Issued by NWS

Home | Current Version | Previous Version | Text Only | Print | Product List | Glossary On
Versions: 1 2 3 4 5 6 7 8 9 10 11 12 13 14
000
FTUS44 KEPZ 221700
TAFTCS
TAF
KTCS 221738Z 2218/2318 VRB06KT P6SM FEW050 BKN120
     FM222200 20010KT P6SM VCTS SCT060CB SCT120
      TEMPO 2222/2302 -TSRA BKN040CB
     FM230400 24008KT P6SM FEW040 BKN120
     FM231700 29007KT P6SM FEW060 SCT250=

USA.gov is the U.S. government's official web portal to all federal, state and local government web resources and services.